createdAt,value
2018-02-26T00:00:44.395Z,-3.10
2018-02-26T00:03:10.487Z,-3.10
2018-02-26T00:05:36.686Z,-3.10
2018-02-26T00:08:03.190Z,-3.10
2018-02-26T00:10:29.874Z,-3.10
2018-02-26T00:12:56.717Z,-3.10
2018-02-26T00:15:23.990Z,-3.20
2018-02-26T00:17:50.939Z,-3.30
2018-02-26T00:20:17.768Z,-3.30
2018-02-26T00:22:44.753Z,-3.10
2018-02-26T00:25:11.257Z,-3.20
2018-02-26T00:27:38.541Z,-3.10
2018-02-26T00:30:05.799Z,-3.20
2018-02-26T00:32:32.429Z,-3.20
2018-02-26T00:34:58.646Z,-3.20
2018-02-26T00:37:25.415Z,-3.30
2018-02-26T00:39:52.822Z,-3.20
2018-02-26T00:42:19.212Z,-3.30
2018-02-26T00:44:46.022Z,-3.30
2018-02-26T00:47:12.259Z,-3.40
2018-02-26T00:49:39.074Z,-3.30
2018-02-26T00:52:06.653Z,-3.30
2018-02-26T00:54:32.767Z,-3.30
2018-02-26T00:56:58.785Z,-3.30
2018-02-26T00:59:24.933Z,-3.30
2018-02-26T01:01:51.063Z,-3.40
2018-02-26T01:04:17.696Z,-3.40
2018-02-26T01:06:44.020Z,-3.40
2018-02-26T01:09:10.953Z,-3.50
2018-02-26T01:11:37.304Z,-3.50
2018-02-26T01:14:04.251Z,-3.60
2018-02-26T01:16:31.215Z,-3.60
2018-02-26T01:19:00.290Z,-3.60
2018-02-26T01:21:26.848Z,-3.60
2018-02-26T01:23:53.829Z,-3.70
2018-02-26T01:26:20.056Z,-3.70
2018-02-26T01:28:46.392Z,-3.50
2018-02-26T01:31:13.256Z,-3.60
2018-02-26T01:33:39.409Z,-3.70
2018-02-26T01:36:05.510Z,-4.00
2018-02-26T01:38:32.345Z,-4.00
2018-02-26T01:40:58.773Z,-3.90
2018-02-26T01:43:25.316Z,-3.80
2018-02-26T01:45:51.982Z,-3.70
2018-02-26T01:48:18.182Z,-3.70
2018-02-26T01:50:47.405Z,-3.80
2018-02-26T01:53:13.688Z,-3.90
2018-02-26T01:55:39.848Z,-3.90
2018-02-26T01:58:07.190Z,-3.90
2018-02-26T02:00:35.497Z,-4.10
2018-02-26T02:03:02.520Z,-4.10
2018-02-26T02:05:29.693Z,-4.20
2018-02-26T02:07:56.001Z,-4.30
2018-02-26T02:10:22.528Z,-4.20
2018-02-26T02:12:48.864Z,-4.20
2018-02-26T02:15:15.901Z,-4.10
2018-02-26T02:17:42.204Z,-4.00
2018-02-26T02:20:09.796Z,-4.20
2018-02-26T02:22:36.244Z,-4.10
2018-02-26T02:25:02.464Z,-4.10
2018-02-26T02:27:28.661Z,-4.00
2018-02-26T02:29:54.960Z,-4.00
2018-02-26T02:32:22.163Z,-4.00
2018-02-26T02:34:49.107Z,-4.40
2018-02-26T02:37:16.072Z,-4.40
2018-02-26T02:39:42.149Z,-4.40
2018-02-26T02:42:08.706Z,-4.30
2018-02-26T02:44:34.978Z,-4.30
2018-02-26T02:47:02.058Z,-4.40
2018-02-26T02:49:28.218Z,-4.50
2018-02-26T02:51:54.439Z,-4.40
2018-02-26T02:54:20.742Z,-4.40
2018-02-26T02:56:47.016Z,-4.40
2018-02-26T02:59:13.194Z,-4.40
2018-02-26T03:01:40.094Z,-4.40
2018-02-26T03:04:06.778Z,-4.40
2018-02-26T03:06:33.119Z,-4.40
2018-02-26T03:08:59.228Z,-4.40
2018-02-26T03:11:25.796Z,-4.40
2018-02-26T03:13:52.644Z,-4.40
2018-02-26T03:16:19.630Z,-4.50
2018-02-26T03:18:45.811Z,-4.60
2018-02-26T03:21:11.913Z,-4.60
2018-02-26T03:23:38.027Z,-4.60
2018-02-26T03:26:04.139Z,-4.70
2018-02-26T03:28:31.167Z,-4.80
2018-02-26T03:30:58.055Z,-5.00
2018-02-26T03:33:24.561Z,-5.10
2018-02-26T03:35:50.894Z,-4.90
2018-02-26T03:38:18.029Z,-4.80
2018-02-26T03:40:45.826Z,-4.80
2018-02-26T03:43:12.112Z,-4.80
2018-02-26T03:45:38.378Z,-4.80
2018-02-26T03:48:04.981Z,-4.90
2018-02-26T03:50:31.247Z,-4.90
2018-02-26T03:52:57.475Z,-4.80
2018-02-26T03:55:24.354Z,-5.00
2018-02-26T03:57:51.257Z,-5.00
2018-02-26T04:00:17.450Z,-5.10
2018-02-26T04:02:44.847Z,-4.90
2018-02-26T04:05:13.018Z,-5.00
2018-02-26T04:07:39.153Z,-5.00
2018-02-26T04:10:05.322Z,-5.00
2018-02-26T04:12:32.413Z,-4.90
2018-02-26T04:14:59.594Z,-4.90
2018-02-26T04:17:26.411Z,-4.90
2018-02-26T04:19:52.580Z,-4.80
2018-02-26T04:22:19.543Z,-4.90
2018-02-26T04:24:46.048Z,-5.00
2018-02-26T04:27:12.320Z,-4.90
2018-02-26T04:29:39.140Z,-5.10
2018-02-26T04:32:06.181Z,-5.10
2018-02-26T04:34:33.263Z,-5.10
2018-02-26T04:36:59.494Z,-5.10
2018-02-26T04:39:25.724Z,-5.20
2018-02-26T04:41:52.020Z,-5.00
2018-02-26T04:44:18.637Z,-4.90
2018-02-26T04:46:44.892Z,-5.00
2018-02-26T04:49:11.857Z,-4.80
2018-02-26T04:51:38.095Z,-4.90
2018-02-26T04:54:04.595Z,-4.80
2018-02-26T04:56:30.922Z,-4.90
2018-02-26T04:58:57.416Z,-5.00
2018-02-26T05:01:23.502Z,-5.10
2018-02-26T05:03:49.781Z,-5.10
2018-02-26T05:06:16.016Z,-5.20
2018-02-26T05:08:42.246Z,-5.10
2018-02-26T05:11:08.780Z,-5.20
2018-02-26T05:13:34.916Z,-5.00
2018-02-26T05:16:01.131Z,-5.00
2018-02-26T05:18:28.775Z,-5.10
2018-02-26T05:20:55.037Z,-5.20
2018-02-26T05:23:21.195Z,-5.10
2018-02-26T05:25:48.270Z,-5.20
2018-02-26T05:28:14.533Z,-5.20
2018-02-26T05:30:41.484Z,-5.30
2018-02-26T05:33:08.334Z,-5.40
2018-02-26T05:35:35.339Z,-5.30
2018-02-26T05:38:01.501Z,-5.40
2018-02-26T05:40:28.034Z,-5.30
2018-02-26T05:42:54.326Z,-5.30
2018-02-26T05:45:21.006Z,-5.20
2018-02-26T05:47:47.215Z,-5.20
2018-02-26T05:50:13.769Z,-5.20
2018-02-26T05:52:42.906Z,-5.40
2018-02-26T05:55:09.297Z,-5.40
2018-02-26T05:57:35.546Z,-5.40
2018-02-26T06:00:02.054Z,-5.50
2018-02-26T06:02:28.595Z,-5.40
2018-02-26T06:04:55.850Z,-5.50
2018-02-26T06:07:24.371Z,-5.40
2018-02-26T06:09:51.284Z,-5.40
2018-02-26T06:12:18.312Z,-4.70
2018-02-26T06:14:45.195Z,-4.70
2018-02-26T06:17:12.364Z,-4.80
2018-02-26T06:19:38.948Z,-5.00
2018-02-26T06:22:06.754Z,-5.20
2018-02-26T06:24:33.581Z,-5.10
2018-02-26T06:26:59.766Z,-5.20
2018-02-26T06:29:35.191Z,-5.30
2018-02-26T06:32:02.308Z,-5.30
2018-02-26T06:34:28.610Z,-5.20
2018-02-26T06:36:54.837Z,-5.20
2018-02-26T06:39:21.756Z,-5.10
2018-02-26T06:41:48.249Z,-5.20
2018-02-26T06:44:14.337Z,-5.10
2018-02-26T06:46:41.060Z,-5.10
2018-02-26T06:49:09.191Z,-5.00
2018-02-26T06:51:35.813Z,-5.00
2018-02-26T06:54:02.003Z,-5.10
2018-02-26T06:56:28.924Z,-5.00
2018-02-26T06:58:57.122Z,-5.10
2018-02-26T07:01:24.336Z,-4.90
2018-02-26T07:03:51.554Z,-4.70
2018-02-26T07:06:20.429Z,-4.60
2018-02-26T07:08:47.464Z,-4.50
2018-02-26T07:11:14.262Z,-4.50
2018-02-26T07:13:40.556Z,-4.40
2018-02-26T07:16:06.761Z,-4.40
2018-02-26T07:18:33.322Z,-4.50
2018-02-26T07:20:59.594Z,-4.50
2018-02-26T07:23:25.836Z,-4.40
2018-02-26T07:25:52.981Z,-4.50
2018-02-26T07:28:20.527Z,-4.50
2018-02-26T07:30:47.471Z,-4.40
2018-02-26T07:33:14.563Z,-4.40
2018-02-26T07:35:41.065Z,-4.10
2018-02-26T07:38:07.445Z,-4.30
2018-02-26T07:40:34.823Z,-4.30
2018-02-26T07:43:01.884Z,-4.10
2018-02-26T07:45:28.166Z,-4.30
2018-02-26T07:47:55.092Z,-4.10
2018-02-26T07:50:22.204Z,-4.10
2018-02-26T07:52:49.209Z,-4.10
2018-02-26T07:55:16.413Z,-4.10
2018-02-26T07:57:42.658Z,-4.10
2018-02-26T08:00:09.048Z,-4.10
2018-02-26T08:02:35.923Z,-4.00
2018-02-26T08:05:02.247Z,-4.10
2018-02-26T08:07:29.178Z,-4.10
2018-02-26T08:09:55.295Z,-4.20
2018-02-26T08:12:21.425Z,-3.90
2018-02-26T08:14:47.713Z,-3.80
2018-02-26T08:17:14.492Z,-3.70
2018-02-26T08:19:41.770Z,-3.70
2018-02-26T08:22:07.938Z,-3.60
2018-02-26T08:24:34.000Z,-3.80
2018-02-26T08:27:00.422Z,-3.90
2018-02-26T08:29:26.974Z,-3.80
2018-02-26T08:31:53.120Z,-3.90
2018-02-26T08:34:19.830Z,-3.90
2018-02-26T08:36:46.572Z,-3.80
2018-02-26T08:39:12.847Z,-3.90
2018-02-26T08:41:39.033Z,-3.60
2018-02-26T08:44:06.203Z,-3.50
2018-02-26T08:46:32.325Z,-3.40
2018-02-26T08:48:58.604Z,-3.50
2018-02-26T08:51:25.713Z,-3.70
2018-02-26T08:53:51.850Z,-3.90
2018-02-26T08:56:18.105Z,-3.80
2018-02-26T08:58:44.993Z,-4.00
2018-02-26T09:01:11.588Z,-3.90
2018-02-26T09:03:37.663Z,-3.70
2018-02-26T09:06:04.512Z,-3.90
2018-02-26T09:08:31.415Z,-3.70
2018-02-26T09:10:57.725Z,-3.80
2018-02-26T09:13:24.583Z,-3.70
2018-02-26T09:15:51.602Z,-3.70
2018-02-26T09:18:17.850Z,-3.80
2018-02-26T09:20:44.063Z,-3.70
2018-02-26T09:23:10.769Z,-3.60
2018-02-26T09:25:38.067Z,-3.50
2018-02-26T09:28:05.373Z,-3.30
2018-02-26T09:30:31.562Z,-3.40
2018-02-26T09:32:58.478Z,-2.90
2018-02-26T09:35:24.577Z,-3.00
2018-02-26T09:37:50.999Z,-2.80
2018-02-26T09:40:17.239Z,-2.70
2018-02-26T09:42:43.458Z,-2.70
2018-02-26T09:45:09.694Z,-2.70
2018-02-26T09:47:36.630Z,-2.90
2018-02-26T09:50:09.022Z,-3.00
2018-02-26T09:52:36.009Z,-2.80
2018-02-26T09:55:02.502Z,-2.90
2018-02-26T09:57:28.577Z,-2.90
2018-02-26T09:59:54.766Z,-2.80
2018-02-26T10:02:21.029Z,-2.90
2018-02-26T10:04:47.959Z,-2.80
2018-02-26T10:07:15.481Z,-2.40
2018-02-26T10:09:42.220Z,-2.50
2018-02-26T10:12:08.441Z,-2.50
2018-02-26T10:14:34.651Z,-2.40
2018-02-26T10:17:00.987Z,-2.30
2018-02-26T10:19:27.251Z,-2.30
2018-02-26T10:21:54.122Z,-2.10
2018-02-26T10:24:20.395Z,-2.10
2018-02-26T10:26:47.955Z,-1.80
2018-02-26T10:29:14.234Z,-1.80
2018-02-26T10:31:40.428Z,-1.90
2018-02-26T10:34:07.351Z,-2.30
2018-02-26T10:36:34.864Z,-2.10
2018-02-26T10:39:01.749Z,-2.20
2018-02-26T10:41:28.263Z,-2.20
2018-02-26T10:43:55.079Z,-2.20
2018-02-26T10:46:21.562Z,-2.30
2018-02-26T10:48:47.795Z,-2.30
2018-02-26T10:51:13.981Z,-2.30
2018-02-26T10:53:41.706Z,-2.20
2018-02-26T10:56:08.029Z,-2.30
2018-02-26T10:58:34.267Z,-2.10
2018-02-26T11:01:00.491Z,-1.90
2018-02-26T11:03:29.706Z,-1.90
2018-02-26T11:05:56.283Z,-1.90
2018-02-26T11:08:22.419Z,-2.00
2018-02-26T11:10:48.652Z,-2.00
2018-02-26T11:13:14.860Z,-2.10
2018-02-26T11:15:41.149Z,-2.40
2018-02-26T11:18:08.290Z,-2.40
2018-02-26T11:20:34.480Z,-2.40
2018-02-26T11:23:00.787Z,-2.20
2018-02-26T11:25:27.019Z,-2.10
2018-02-26T11:27:53.736Z,-2.00
2018-02-26T11:30:20.727Z,-2.10
2018-02-26T11:32:46.903Z,-2.10
2018-02-26T11:35:15.066Z,-1.90
2018-02-26T11:37:41.303Z,-2.00
2018-02-26T11:40:07.592Z,-1.70
2018-02-26T11:42:33.975Z,-1.70
2018-02-26T11:45:00.187Z,-1.80
2018-02-26T11:47:26.289Z,-1.80
2018-02-26T11:49:53.725Z,-1.70
2018-02-26T11:52:20.150Z,-1.80
2018-02-26T11:54:46.438Z,-1.80
2018-02-26T11:57:16.253Z,-1.70
2018-02-26T11:59:42.543Z,-1.80
2018-02-26T12:02:10.606Z,-1.70
2018-02-26T12:04:38.060Z,-1.60
2018-02-26T12:07:04.714Z,-1.60
2018-02-26T12:09:31.931Z,-1.60
2018-02-26T12:11:59.453Z,-1.70
2018-02-26T12:14:26.526Z,-1.60
2018-02-26T12:16:52.732Z,-1.50
2018-02-26T12:19:20.138Z,-1.50
2018-02-26T12:21:46.431Z,-1.60
2018-02-26T12:24:13.426Z,-1.50
2018-02-26T12:26:39.787Z,-1.60
2018-02-26T12:29:08.137Z,-1.60
2018-02-26T12:31:34.415Z,-1.60
2018-02-26T12:34:04.388Z,-1.80
2018-02-26T12:36:32.018Z,-1.80
2018-02-26T12:38:58.155Z,-1.80
2018-02-26T12:41:24.446Z,-1.70
2018-02-26T12:43:52.789Z,-1.80
2018-02-26T12:46:19.301Z,-1.80
2018-02-26T12:48:46.147Z,-1.90
2018-02-26T12:51:12.869Z,-1.90
2018-02-26T12:53:40.709Z,-1.80
2018-02-26T12:56:08.486Z,-1.90
2018-02-26T12:58:34.672Z,-1.90
2018-02-26T13:01:01.650Z,-1.70
2018-02-26T13:03:28.589Z,-1.50
2018-02-26T13:05:55.183Z,-1.60
2018-02-26T13:08:21.548Z,-1.50
2018-02-26T13:10:47.932Z,-1.50
2018-02-26T13:13:14.614Z,-1.50
2018-02-26T13:15:40.947Z,-1.50
2018-02-26T13:18:07.743Z,-1.60
2018-02-26T13:20:35.449Z,-1.80
2018-02-26T13:23:01.675Z,-1.80
2018-02-26T13:25:28.182Z,-1.70
2018-02-26T13:27:54.588Z,-1.60
2018-02-26T13:30:20.677Z,-1.50
2018-02-26T13:32:46.988Z,-1.60
2018-02-26T13:35:14.859Z,-1.70
2018-02-26T13:37:41.137Z,-1.80
2018-02-26T13:40:08.140Z,-1.80
2018-02-26T13:42:35.068Z,-2.00
2018-02-26T13:45:02.594Z,-2.10
2018-02-26T13:47:28.908Z,-2.10
2018-02-26T13:49:56.155Z,-2.20
2018-02-26T13:52:22.483Z,-2.20
2018-02-26T13:54:49.940Z,-2.00
2018-02-26T13:57:16.830Z,-1.80
2018-02-26T13:59:44.448Z,-1.80
2018-02-26T14:02:10.531Z,-1.80
2018-02-26T14:04:36.803Z,-1.70
2018-02-26T14:07:02.969Z,-1.60
2018-02-26T14:09:29.671Z,-1.50
2018-02-26T14:11:56.438Z,-1.20
2018-02-26T14:14:23.412Z,-1.00
2018-02-26T14:16:50.314Z,-0.30
2018-02-26T14:19:17.603Z,-0.30
2018-02-26T14:21:43.844Z,-0.30
2018-02-26T14:24:10.884Z,-0.50
2018-02-26T14:26:38.456Z,-0.60
2018-02-26T14:29:05.585Z,-0.70
2018-02-26T14:31:31.922Z,-0.70
2018-02-26T14:33:58.195Z,-0.20
2018-02-26T14:36:25.242Z,0.00
2018-02-26T14:38:52.825Z,0.00
2018-02-26T14:41:19.149Z,0.90
2018-02-26T14:43:45.928Z,2.00
2018-02-26T14:46:12.359Z,1.50
2018-02-26T14:48:38.540Z,0.40
2018-02-26T14:51:06.035Z,-1.00
2018-02-26T14:53:32.255Z,-1.10
2018-02-26T14:55:59.254Z,-1.20
2018-02-26T14:58:25.796Z,-1.60
2018-02-26T15:00:52.026Z,-1.60
2018-02-26T15:03:18.172Z,-1.60
2018-02-26T15:05:45.204Z,-1.60
2018-02-26T15:08:11.371Z,-1.60
2018-02-26T15:10:38.011Z,-1.20
2018-02-26T15:13:04.137Z,-1.00
2018-02-26T15:15:31.360Z,-0.90
2018-02-26T15:17:58.435Z,-1.00
2018-02-26T15:20:25.917Z,-0.90
2018-02-26T15:22:53.246Z,-1.30
2018-02-26T15:25:22.296Z,-1.50
2018-02-26T15:27:48.624Z,-1.40
2018-02-26T15:30:15.153Z,-1.60
2018-02-26T15:32:42.608Z,-1.70
2018-02-26T15:35:10.176Z,-1.90
2018-02-26T15:37:36.458Z,-1.90
2018-02-26T15:40:02.782Z,-1.80
2018-02-26T15:42:29.555Z,-1.60
2018-02-26T15:44:56.832Z,-1.30
2018-02-26T15:47:23.497Z,-1.20
2018-02-26T15:49:51.310Z,-1.30
2018-02-26T15:52:17.488Z,-1.50
2018-02-26T15:54:43.593Z,-1.80
2018-02-26T15:57:09.777Z,-1.90
2018-02-26T15:59:36.707Z,-1.80
2018-02-26T16:02:03.045Z,-2.00
2018-02-26T16:04:30.611Z,-2.10
2018-02-26T16:06:56.882Z,-2.10
2018-02-26T16:09:23.367Z,-2.10
2018-02-26T16:11:50.262Z,-2.10
2018-02-26T16:14:17.060Z,-2.10
2018-02-26T16:16:44.446Z,-2.10
2018-02-26T16:19:11.439Z,-2.10
2018-02-26T16:21:38.424Z,-2.20
2018-02-26T16:24:05.198Z,-2.30
2018-02-26T16:26:32.119Z,-2.40
2018-02-26T16:28:59.949Z,-2.40
2018-02-26T16:31:26.162Z,-2.40
2018-02-26T16:33:53.388Z,-2.40
2018-02-26T16:36:20.285Z,-2.50
2018-02-26T16:38:47.220Z,-2.60
2018-02-26T16:41:14.016Z,-2.60
2018-02-26T16:43:40.278Z,-2.60
2018-02-26T16:46:06.777Z,-2.60
2018-02-26T16:48:34.439Z,-2.60
2018-02-26T16:51:01.396Z,-2.50
2018-02-26T16:53:27.763Z,-2.50
2018-02-26T16:55:54.691Z,-2.60
2018-02-26T16:58:22.775Z,-2.50
2018-02-26T17:00:50.608Z,-2.60
2018-02-26T17:03:17.208Z,-2.60
2018-02-26T17:05:44.679Z,-2.70
2018-02-26T17:08:11.756Z,-2.70
2018-02-26T17:10:38.028Z,-2.70
2018-02-26T17:13:04.128Z,-2.70
2018-02-26T17:15:30.395Z,-2.80
2018-02-26T17:17:58.938Z,-2.70
2018-02-26T17:20:25.188Z,-2.80
2018-02-26T17:22:51.551Z,-2.70
2018-02-26T17:25:18.127Z,-2.80
2018-02-26T17:27:45.556Z,-2.80
2018-02-26T17:30:12.146Z,-2.90
2018-02-26T17:32:38.232Z,-2.90
2018-02-26T17:35:04.458Z,-2.90
2018-02-26T17:37:30.696Z,-2.80
2018-02-26T17:39:56.929Z,-2.80
2018-02-26T17:42:23.834Z,-2.80
2018-02-26T17:44:50.025Z,-2.80
2018-02-26T17:47:19.842Z,-2.70
2018-02-26T17:49:46.723Z,-2.80
2018-02-26T17:52:13.996Z,-2.80
2018-02-26T17:54:40.158Z,-2.90
2018-02-26T17:57:06.301Z,-3.00
2018-02-26T17:59:33.034Z,-2.90
2018-02-26T18:01:59.280Z,-2.80
2018-02-26T18:04:25.572Z,-2.80
2018-02-26T18:06:52.502Z,-2.80
2018-02-26T18:09:19.492Z,-2.80
2018-02-26T18:11:45.910Z,-2.90
2018-02-26T18:14:13.291Z,-2.90
2018-02-26T18:16:39.580Z,-2.90
2018-02-26T18:19:05.919Z,-2.90
2018-02-26T18:21:34.383Z,-2.90
2018-02-26T18:24:01.349Z,-3.00
2018-02-26T18:26:28.795Z,-2.90
2018-02-26T19:00:56.215Z,-3.30
2018-02-26T19:03:22.816Z,-3.40
2018-02-26T19:05:49.261Z,-3.30
2018-02-26T19:08:15.469Z,-3.40
2018-02-26T19:10:43.834Z,-3.50
2018-02-26T19:13:10.064Z,-3.60
2018-02-26T19:15:43.730Z,-3.50
2018-02-26T19:18:10.822Z,-3.30
2018-02-26T19:20:37.956Z,-3.30
2018-02-26T19:23:05.452Z,-3.30
2018-02-26T19:25:31.838Z,-3.10
2018-02-26T19:27:58.189Z,-3.20
2018-02-26T19:30:31.659Z,-3.20
2018-02-26T19:32:59.224Z,-3.40
2018-02-26T19:35:26.103Z,-3.50
2018-02-26T19:37:54.463Z,-3.50
2018-02-26T19:40:20.948Z,-3.40
2018-02-26T19:42:47.245Z,-3.30
2018-02-26T19:45:13.574Z,-3.40
2018-02-26T19:47:40.830Z,-3.50
2018-02-26T19:50:08.203Z,-3.60
2018-02-26T19:52:34.637Z,-3.70
2018-02-26T19:55:01.070Z,-3.50
2018-02-26T19:57:28.351Z,-3.50
2018-02-26T19:59:54.536Z,-3.50
2018-02-26T20:02:21.872Z,-3.60
2018-02-26T20:04:47.996Z,-3.50
2018-02-26T20:07:14.279Z,-3.50
2018-02-26T20:09:41.199Z,-3.60
2018-02-26T20:12:07.502Z,-3.70
2018-02-26T20:14:36.808Z,-3.80
2018-02-26T20:17:05.574Z,-3.80
2018-02-26T20:19:34.446Z,-3.60
2018-02-26T20:22:01.366Z,-3.50
2018-02-26T20:24:27.868Z,-3.50
2018-02-26T20:26:55.450Z,-3.60
2018-02-26T20:29:21.771Z,-3.60
2018-02-26T20:31:48.404Z,-3.70
2018-02-26T20:34:16.186Z,-3.60
2018-02-26T20:36:42.436Z,-3.70
2018-02-26T20:39:09.451Z,-3.60
2018-02-26T20:41:36.081Z,-3.40
2018-02-26T20:44:03.299Z,-3.30
2018-02-26T20:46:30.067Z,-3.40
2018-02-26T20:48:57.021Z,-3.60
2018-02-26T20:51:23.286Z,-3.60
2018-02-26T20:53:52.873Z,-3.70
2018-02-26T20:56:19.288Z,-3.80
2018-02-26T20:58:46.890Z,-3.70
2018-02-26T21:01:13.521Z,-3.60
2018-02-26T21:06:14.962Z,-3.50
2018-02-26T21:08:41.753Z,-3.60
2018-02-26T21:11:08.222Z,-3.60
2018-02-26T21:13:36.426Z,-3.70
2018-02-26T21:18:35.631Z,-3.60
2018-02-26T21:21:02.695Z,-3.50
2018-02-26T21:23:30.779Z,-3.60
2018-02-26T21:25:57.469Z,-3.60
2018-02-26T21:28:25.096Z,-3.70
2018-02-26T21:30:52.342Z,-3.30
2018-02-26T21:33:18.686Z,-3.30
2018-02-26T21:35:44.963Z,-3.20
2018-02-26T21:38:13.565Z,-3.30
2018-02-26T21:40:40.823Z,-3.20
2018-02-26T21:43:08.415Z,-3.30
2018-02-26T21:45:34.989Z,-3.20
2018-02-26T21:48:01.274Z,-3.10
2018-02-26T21:50:28.569Z,-3.00
2018-02-26T21:52:54.971Z,-3.10
2018-02-26T21:55:21.496Z,-3.30
2018-02-26T21:57:47.979Z,-3.40
2018-02-26T22:00:16.092Z,-3.50
2018-02-26T22:02:42.433Z,-3.70
2018-02-26T22:05:10.126Z,-3.80
2018-02-26T22:07:40.487Z,-3.70
2018-02-26T22:10:03.575Z,-3.80
2018-02-26T22:12:32.463Z,-3.80
2018-02-26T22:14:58.772Z,-3.80
2018-02-26T22:17:25.314Z,-3.80
2018-02-26T22:19:54.815Z,-3.80
2018-02-26T22:22:21.866Z,-3.70
2018-02-26T22:24:51.275Z,-3.70
2018-02-26T22:27:19.432Z,-3.60
2018-02-26T22:29:45.676Z,-3.50
2018-02-26T22:32:12.265Z,-3.60
2018-02-26T22:34:39.202Z,-3.80
2018-02-26T22:37:05.577Z,-3.80
2018-02-26T22:39:33.190Z,-3.90
2018-02-26T22:42:00.533Z,-3.90
2018-02-26T22:44:26.823Z,-3.90
2018-02-26T22:46:54.007Z,-3.90
2018-02-26T22:49:20.918Z,-3.90
2018-02-26T22:51:47.288Z,-4.00
2018-02-26T22:54:14.386Z,-3.80
2018-02-26T22:56:40.868Z,-3.90
2018-02-26T22:59:07.326Z,-3.90
2018-02-26T23:01:34.504Z,-3.80
2018-02-26T23:04:01.048Z,-3.90
2018-02-26T23:06:27.676Z,-3.80
2018-02-26T23:08:54.161Z,-3.80
2018-02-26T23:11:22.176Z,-3.80
2018-02-26T23:13:49.063Z,-3.80
2018-02-26T23:16:15.414Z,-3.60
2018-02-26T23:18:41.639Z,-3.60
2018-02-26T23:21:08.280Z,-3.60
2018-02-26T23:23:34.561Z,-3.60
2018-02-26T23:26:00.872Z,-3.60
2018-02-26T23:28:28.026Z,-3.40
2018-02-26T23:30:55.184Z,-3.50
2018-02-26T23:33:22.327Z,-3.50
2018-02-26T23:35:49.477Z,-3.60
2018-02-26T23:38:15.784Z,-3.50
2018-02-26T23:40:42.359Z,-3.50
2018-02-26T23:43:08.582Z,-3.30
2018-02-26T23:45:35.008Z,-3.40
2018-02-26T23:48:02.005Z,-3.40
2018-02-26T23:50:30.025Z,-3.50
2018-02-26T23:52:58.481Z,-3.60
2018-02-26T23:55:26.838Z,-3.60
2018-02-26T23:57:57.366Z,-3.60
